createdAt,value
2022-11-22T00:00:28.106Z,20.17
2022-11-22T00:02:55.643Z,21.43
2022-11-22T00:05:22.570Z,22.07
2022-11-22T00:07:49.583Z,21.80
2022-11-22T00:10:16.894Z,17.70
2022-11-22T00:12:44.359Z,22.77
2022-11-22T00:15:12.005Z,21.47
2022-11-22T00:17:39.322Z,23.30
2022-11-22T00:20:08.773Z,23.87
2022-11-22T00:22:39.715Z,20.10
2022-11-22T00:25:09.980Z,21.60
2022-11-22T00:27:36.865Z,23.90
2022-11-22T00:30:04.338Z,22.80
2022-11-22T00:32:31.334Z,23.63
2022-11-22T00:34:58.204Z,24.77
2022-11-22T00:37:25.303Z,24.13
2022-11-22T00:39:52.196Z,24.40
2022-11-22T00:42:19.098Z,26.03
2022-11-22T00:44:45.987Z,22.97
2022-11-22T00:47:12.906Z,21.80
2022-11-22T00:49:39.818Z,20.40
2022-11-22T00:52:06.834Z,22.90
2022-11-22T00:54:33.718Z,20.83
2022-11-22T00:57:00.582Z,22.40
2022-11-22T00:59:27.656Z,22.03
2022-11-22T01:01:54.750Z,21.37
2022-11-22T01:04:21.829Z,21.47
2022-11-22T01:06:48.791Z,24.40
2022-11-22T01:09:21.708Z,23.47
2022-11-22T01:11:49.006Z,24.80
2022-11-22T01:14:16.758Z,21.23
2022-11-22T01:16:43.728Z,26.30
2022-11-22T01:19:10.955Z,23.27
2022-11-22T01:21:38.220Z,22.60
2022-11-22T01:24:05.508Z,24.10
2022-11-22T01:26:33.590Z,25.67
2022-11-22T01:29:00.582Z,21.40
2022-11-22T01:31:27.443Z,24.10
2022-11-22T01:33:54.339Z,24.70
2022-11-22T01:36:21.308Z,24.33
2022-11-22T01:38:48.245Z,23.73
2022-11-22T01:41:15.202Z,25.60
2022-11-22T01:43:42.109Z,22.53
2022-11-22T01:46:34.946Z,23.30
2022-11-22T01:49:11.620Z,28.60
2022-11-22T01:51:44.691Z,24.23
2022-11-22T01:54:16.050Z,25.87
2022-11-22T01:56:46.128Z,25.50
2022-11-22T01:59:18.770Z,26.83
2022-11-22T02:01:45.770Z,23.93
2022-11-22T02:04:17.557Z,26.97
2022-11-22T02:07:14.420Z,25.37
2022-11-22T02:09:43.553Z,24.33
2022-11-22T02:12:12.297Z,25.10
2022-11-22T02:14:40.870Z,26.73
2022-11-22T02:17:07.966Z,25.27
2022-11-22T02:19:45.602Z,25.67
2022-11-22T02:22:27.305Z,28.80
2022-11-22T02:25:12.897Z,30.00
2022-11-22T02:27:40.318Z,24.97
2022-11-22T02:30:07.688Z,25.97
2022-11-22T02:32:34.769Z,24.73
2022-11-22T02:35:01.797Z,26.87
2022-11-22T02:37:33.098Z,22.77
2022-11-22T02:40:05.132Z,26.20
2022-11-22T02:42:33.720Z,26.10
2022-11-22T02:45:00.616Z,24.70
2022-11-22T02:47:27.473Z,26.47
2022-11-22T02:49:54.393Z,28.43
2022-11-22T02:52:21.348Z,24.13
2022-11-22T02:54:48.182Z,24.13
2022-11-22T02:57:15.046Z,26.97
2022-11-22T02:59:41.909Z,27.57
2022-11-22T03:02:08.818Z,29.43
2022-11-22T03:04:35.737Z,26.43
2022-11-22T03:07:03.066Z,27.53
2022-11-22T03:09:31.091Z,23.20
2022-11-22T03:11:58.519Z,23.00
2022-11-22T03:14:26.023Z,24.60
2022-11-22T03:16:53.002Z,21.07
2022-11-22T03:19:20.350Z,28.03
2022-11-22T03:21:47.256Z,25.43
2022-11-22T03:24:14.455Z,26.53
2022-11-22T03:26:41.487Z,24.67
2022-11-22T03:29:08.356Z,25.93
2022-11-22T03:31:36.073Z,26.80
2022-11-22T03:34:03.007Z,25.03
2022-11-22T03:36:29.910Z,24.80
2022-11-22T03:38:56.931Z,25.40
2022-11-22T03:41:23.783Z,27.20
2022-11-22T03:43:50.741Z,28.67
2022-11-22T03:46:19.626Z,22.47
2022-11-22T03:48:47.144Z,31.27
2022-11-22T03:51:14.233Z,25.50
2022-11-22T03:53:41.161Z,25.47
2022-11-22T03:56:08.132Z,30.10
2022-11-22T03:58:35.243Z,24.07
2022-11-22T04:01:02.349Z,26.27
2022-11-22T04:03:29.305Z,27.53
2022-11-22T04:05:56.603Z,25.47
2022-11-22T04:08:23.794Z,27.97
2022-11-22T04:10:51.500Z,26.00
2022-11-22T04:13:19.238Z,31.93
2022-11-22T04:15:46.286Z,29.77
2022-11-22T04:18:14.346Z,29.30
2022-11-22T04:20:59.701Z,22.37
2022-11-22T04:23:32.444Z,22.37
2022-11-22T04:26:00.931Z,24.63
2022-11-22T04:28:53.569Z,28.13
2022-11-22T04:31:33.445Z,30.15
2022-11-22T04:34:00.322Z,22.67
2022-11-22T04:36:27.205Z,23.60
2022-11-22T04:38:54.068Z,21.73
2022-11-22T04:41:21.148Z,19.53
2022-11-22T04:44:14.470Z,21.47
2022-11-22T04:46:41.331Z,24.07
2022-11-22T04:49:08.223Z,27.33
2022-11-22T04:51:53.929Z,22.80
2022-11-22T04:54:20.959Z,22.77
2022-11-22T04:56:48.099Z,27.33
2022-11-22T04:59:15.104Z,27.90
2022-11-22T05:01:41.989Z,26.33
2022-11-22T05:04:08.869Z,24.07
2022-11-22T05:06:37.459Z,23.93
2022-11-22T05:09:04.725Z,25.60
2022-11-22T05:11:31.658Z,19.53
2022-11-22T05:13:58.700Z,22.23
2022-11-22T05:16:25.581Z,22.63
2022-11-22T05:19:01.657Z,23.43
2022-11-22T05:21:30.005Z,27.10
2022-11-22T05:23:57.201Z,23.67
2022-11-22T05:26:30.173Z,21.07
2022-11-22T05:29:00.836Z,21.47
2022-11-22T05:31:28.001Z,24.70
2022-11-22T05:33:57.085Z,25.90
2022-11-22T05:36:24.736Z,17.67
2022-11-22T05:38:52.345Z,23.87
2022-11-22T05:41:19.366Z,23.47
2022-11-22T05:43:46.472Z,22.53
2022-11-22T05:46:26.438Z,26.60
2022-11-22T05:48:55.235Z,24.23
2022-11-22T05:51:29.074Z,19.97
2022-11-22T05:53:59.356Z,21.47
2022-11-22T05:56:26.249Z,20.93
2022-11-22T05:58:53.408Z,21.10
2022-11-22T06:01:22.407Z,23.67
2022-11-22T06:03:50.150Z,24.57
2022-11-22T06:06:20.232Z,24.87
2022-11-22T06:08:48.848Z,17.87
2022-11-22T06:11:21.866Z,17.37
2022-11-22T06:13:51.842Z,19.37
2022-11-22T06:16:18.828Z,23.10
2022-11-22T06:18:45.785Z,20.47
2022-11-22T06:21:15.920Z,21.97
2022-11-22T06:23:43.123Z,17.93
2022-11-22T06:26:12.545Z,17.73
2022-11-22T06:28:40.879Z,21.30
2022-11-22T06:31:28.509Z,17.53
2022-11-22T06:38:54.213Z,19.40
2022-11-22T06:41:23.906Z,20.30
2022-11-22T06:43:52.642Z,21.23
2022-11-22T06:46:21.838Z,17.17
2022-11-22T06:48:49.745Z,15.63
2022-11-22T06:51:25.559Z,18.83
2022-11-22T06:53:55.454Z,16.03
2022-11-22T06:56:26.346Z,17.40
2022-11-22T06:58:53.985Z,16.13
2022-11-22T07:01:28.941Z,18.53
2022-11-22T07:03:58.482Z,16.33
2022-11-22T07:06:31.085Z,14.80
2022-11-22T07:08:59.632Z,12.50
2022-11-22T07:11:28.726Z,17.70
2022-11-22T07:14:01.710Z,13.40
2022-11-22T07:16:32.709Z,18.15
2022-11-22T07:19:02.907Z,16.43
2022-11-22T07:21:29.967Z,15.97
2022-11-22T07:23:56.922Z,14.17
2022-11-22T07:26:25.661Z,15.67
2022-11-22T07:28:52.772Z,13.80
2022-11-22T07:31:19.735Z,11.47
2022-11-22T07:33:47.246Z,12.57
2022-11-22T07:36:19.368Z,17.33
2022-11-22T07:38:47.988Z,12.20
2022-11-22T07:41:16.091Z,12.83
2022-11-22T07:43:43.039Z,11.95
2022-11-22T07:46:22.351Z,11.73
2022-11-22T07:48:50.018Z,12.55
2022-11-22T07:51:17.561Z,10.57
2022-11-22T07:53:44.626Z,13.73
2022-11-22T07:56:11.634Z,11.03
2022-11-22T07:58:38.865Z,10.67
2022-11-22T08:01:08.176Z,11.47
2022-11-22T08:03:35.956Z,10.98
2022-11-22T08:06:04.865Z,9.07
2022-11-22T08:08:31.954Z,8.38
2022-11-22T08:10:58.907Z,11.50
2022-11-22T08:13:26.001Z,10.57
2022-11-22T08:15:54.623Z,9.50
2022-11-22T08:18:22.730Z,8.97
2022-11-22T08:20:49.657Z,12.00
2022-11-22T08:23:16.637Z,11.88
2022-11-22T08:25:43.530Z,8.82
2022-11-22T08:28:14.094Z,9.73
2022-11-22T08:30:42.566Z,8.00
2022-11-22T08:33:09.523Z,8.98
2022-11-22T08:35:36.450Z,8.95
2022-11-22T08:38:03.484Z,10.53
2022-11-22T08:40:30.434Z,10.95
2022-11-22T08:42:57.888Z,11.55
2022-11-22T08:45:25.022Z,12.57
2022-11-22T08:47:52.682Z,13.18
2022-11-22T08:50:19.597Z,10.43
2022-11-22T08:52:46.572Z,10.68
2022-11-22T08:55:13.519Z,10.88
2022-11-22T08:57:40.435Z,10.75
2022-11-22T09:00:08.286Z,11.07
2022-11-22T09:02:35.218Z,12.25
2022-11-22T09:05:02.700Z,11.38
2022-11-22T09:10:18.527Z,10.02
2022-11-22T09:12:46.500Z,10.38
2022-11-22T09:15:14.324Z,9.73
2022-11-22T09:17:42.089Z,9.50
2022-11-22T09:20:10.115Z,9.35
2022-11-22T09:22:37.903Z,9.10
2022-11-22T09:25:06.447Z,9.65
2022-11-22T09:27:35.274Z,7.65
2022-11-22T09:30:04.212Z,9.05
2022-11-22T09:32:33.864Z,8.73
2022-11-22T09:35:01.077Z,8.55
2022-11-22T09:37:31.862Z,10.63
2022-11-22T09:39:59.119Z,8.38
2022-11-22T09:42:52.547Z,9.82
2022-11-22T09:45:39.126Z,11.65
2022-11-22T09:48:21.133Z,11.02
2022-11-22T09:51:05.771Z,11.82
2022-11-22T09:53:54.384Z,11.73
2022-11-22T09:56:25.590Z,9.50
2022-11-22T09:58:57.414Z,8.32
2022-11-22T10:01:31.760Z,10.00
2022-11-22T10:04:13.729Z,8.65
2022-11-22T10:06:43.848Z,9.35
2022-11-22T10:09:10.766Z,7.80
2022-11-22T10:11:49.475Z,9.00
2022-11-22T10:14:34.869Z,7.05
2022-11-22T10:17:29.980Z,7.70
2022-11-22T10:20:06.166Z,7.22
2022-11-22T10:22:35.042Z,7.88
2022-11-22T10:25:10.253Z,7.53
2022-11-22T10:27:38.792Z,7.05
2022-11-22T10:30:13.566Z,8.10
2022-11-22T10:32:50.240Z,7.78
2022-11-22T10:35:28.494Z,6.57
2022-11-22T10:38:22.585Z,7.88
2022-11-22T10:41:10.635Z,8.85
2022-11-22T10:43:37.442Z,7.43
2022-11-22T10:46:20.490Z,8.68
2022-11-22T10:49:17.977Z,8.35
2022-11-22T10:52:14.712Z,8.07
2022-11-22T10:55:03.506Z,9.68
2022-11-22T10:57:38.343Z,8.57
2022-11-22T11:00:19.779Z,7.95
2022-11-22T11:02:52.737Z,7.78
2022-11-22T11:05:23.279Z,8.35
2022-11-22T11:07:56.771Z,5.95
2022-11-22T11:10:37.362Z,10.18
2022-11-22T11:13:21.658Z,9.07
2022-11-22T11:15:56.024Z,7.93
2022-11-22T11:18:35.742Z,9.90
2022-11-22T11:21:02.790Z,8.05
2022-11-22T11:23:29.730Z,7.30
2022-11-22T11:26:17.961Z,7.05
2022-11-22T11:28:45.378Z,5.53
2022-11-22T11:31:18.633Z,6.30
2022-11-22T11:33:46.574Z,8.65
2022-11-22T11:36:24.745Z,5.28
2022-11-22T11:38:56.785Z,8.38
2022-11-22T11:41:26.837Z,6.43
2022-11-22T11:43:55.941Z,7.40
2022-11-22T11:46:28.647Z,6.40
2022-11-22T11:49:17.298Z,6.10
2022-11-22T11:51:46.632Z,7.50
2022-11-22T11:54:22.937Z,8.07
2022-11-22T11:56:52.755Z,9.75
2022-11-22T11:59:22.370Z,5.28
2022-11-22T12:01:57.202Z,7.65
2022-11-22T12:04:35.028Z,8.48
2022-11-22T12:07:24.136Z,7.53
2022-11-22T12:09:53.191Z,8.13
2022-11-22T12:12:48.000Z,8.57
2022-11-22T12:15:18.182Z,11.13
2022-11-22T12:18:06.954Z,7.07
2022-11-22T12:20:45.593Z,8.38
2022-11-22T12:23:12.807Z,5.15
2022-11-22T12:25:40.617Z,5.72
2022-11-22T12:28:27.567Z,7.93
2022-11-22T12:30:57.439Z,5.33
2022-11-22T12:33:47.607Z,6.30
2022-11-22T12:39:25.144Z,7.00
2022-11-22T12:42:01.553Z,7.45
2022-11-22T12:44:35.361Z,7.25
2022-11-22T12:47:10.099Z,8.32
2022-11-22T12:48:22.656Z,7.15
2022-11-22T12:49:55.131Z,6.65
2022-11-22T12:52:44.146Z,6.63
2022-11-22T12:55:11.053Z,7.05
2022-11-22T12:57:58.147Z,4.90
2022-11-22T13:00:28.958Z,8.88
2022-11-22T13:03:07.462Z,5.20
2022-11-22T13:05:43.578Z,8.07
2022-11-22T13:08:33.198Z,5.32
2022-11-22T13:11:16.761Z,5.45
2022-11-22T13:13:47.829Z,6.53
2022-11-22T13:16:15.101Z,5.22
2022-11-22T13:18:46.737Z,6.10
2022-11-22T13:21:40.069Z,6.75
2022-11-22T13:24:31.404Z,6.20
2022-11-22T13:27:10.217Z,6.65
2022-11-22T13:29:41.849Z,5.88
2022-11-22T13:32:11.594Z,5.78
2022-11-22T13:35:00.144Z,6.03
2022-11-22T13:37:29.838Z,5.32
2022-11-22T13:39:56.903Z,6.20
2022-11-22T13:42:28.159Z,4.45
2022-11-22T13:44:58.230Z,9.05
2022-11-22T13:47:39.056Z,8.40
2022-11-22T13:50:33.768Z,5.05
2022-11-22T13:53:23.622Z,5.50
2022-11-22T13:55:51.462Z,4.50
2022-11-22T13:58:24.358Z,7.15
2022-11-22T14:00:53.743Z,9.88
2022-11-22T14:03:27.913Z,8.38
2022-11-22T14:05:58.177Z,6.95
2022-11-22T14:08:38.803Z,8.43
2022-11-22T14:11:36.430Z,7.00
2022-11-22T14:14:33.460Z,6.88
2022-11-22T14:17:15.620Z,8.93
2022-11-22T14:20:07.747Z,6.60
2022-11-22T14:22:50.224Z,7.40
2022-11-22T14:25:38.694Z,6.45
2022-11-22T14:28:35.850Z,5.40
2022-11-22T14:31:22.024Z,6.55
2022-11-22T14:34:34.350Z,4.88
2022-11-22T14:37:10.463Z,5.82
2022-11-22T14:39:55.811Z,7.43
2022-11-22T14:42:43.402Z,5.97
2022-11-22T14:45:10.341Z,7.35
2022-11-22T14:47:41.038Z,7.35
2022-11-22T14:50:36.830Z,5.78
2022-11-22T14:53:26.222Z,6.28
2022-11-22T14:56:03.661Z,6.13
2022-11-22T14:58:35.158Z,6.10
2022-11-22T15:01:46.735Z,5.35
2022-11-22T15:09:21.286Z,8.70
2022-11-22T15:09:21.748Z,6.57
2022-11-22T15:10:29.047Z,6.82
2022-11-22T15:13:07.800Z,6.70
2022-11-22T15:57:37.757Z,6.63
2022-11-22T16:00:28.858Z,8.43
2022-11-22T16:03:01.668Z,6.40
2022-11-22T16:06:05.473Z,10.15
2022-11-22T16:08:27.876Z,8.00
2022-11-22T16:10:59.270Z,10.55
2022-11-22T16:13:28.606Z,8.88
2022-11-22T16:16:13.914Z,9.02
2022-11-22T16:18:42.083Z,12.05
2022-11-22T16:21:11.876Z,5.35
2022-11-22T16:23:40.209Z,5.65
2022-11-22T16:26:19.362Z,5.70
2022-11-22T16:28:51.545Z,6.18
2022-11-22T16:31:26.215Z,6.55
2022-11-22T16:33:55.115Z,8.18
2022-11-22T16:36:24.009Z,5.72
2022-11-22T16:38:51.379Z,6.25
2022-11-22T16:41:24.775Z,10.55
2022-11-22T16:43:54.862Z,5.25
2022-11-22T16:46:22.000Z,6.18
2022-11-22T16:48:49.148Z,7.05
2022-11-22T16:51:36.321Z,6.22
2022-11-22T16:54:11.161Z,6.18
2022-11-22T16:56:38.006Z,6.88
2022-11-22T16:59:11.094Z,6.85
2022-11-22T17:01:42.140Z,8.05
2022-11-22T17:04:22.195Z,7.13
2022-11-22T17:06:49.737Z,5.82
2022-11-22T17:09:16.641Z,5.95
2022-11-22T17:11:44.713Z,8.05
2022-11-22T17:14:15.950Z,6.85
2022-11-22T17:16:43.018Z,8.88
2022-11-22T17:19:30.378Z,6.00
2022-11-22T17:21:58.629Z,8.60
2022-11-22T17:24:25.721Z,6.32
2022-11-22T17:26:52.653Z,8.80
2022-11-22T17:29:43.336Z,5.80
2022-11-22T17:32:06.574Z,6.25
2022-11-22T17:34:33.646Z,6.30
2022-11-22T17:37:00.828Z,5.30
2022-11-22T17:39:28.631Z,7.65
2022-11-22T17:41:55.812Z,6.85
2022-11-22T17:44:22.849Z,7.00
2022-11-22T17:46:49.884Z,7.97
2022-11-22T17:49:16.771Z,7.68
2022-11-22T17:51:46.776Z,7.97
2022-11-22T17:54:13.680Z,9.95
2022-11-22T17:56:40.587Z,8.57
2022-11-22T17:59:07.577Z,8.70
2022-11-22T18:01:36.912Z,9.75
2022-11-22T18:04:05.432Z,10.77
2022-11-22T18:06:32.353Z,10.05
2022-11-22T18:09:00.392Z,8.82
2022-11-22T18:11:27.293Z,10.88
2022-11-22T18:13:54.257Z,10.45
2022-11-22T18:16:22.368Z,10.20
2022-11-22T18:18:56.613Z,10.90
2022-11-22T18:21:24.755Z,9.13
2022-11-22T18:23:51.726Z,11.90
2022-11-22T18:31:53.643Z,10.52
2022-11-22T18:34:21.961Z,8.85
2022-11-22T18:37:06.254Z,10.13
2022-11-22T18:39:36.856Z,8.90
2022-11-22T18:42:06.201Z,7.53
2022-11-22T18:44:33.401Z,9.35
2022-11-22T18:47:00.457Z,8.45
2022-11-22T18:49:29.086Z,7.45
2022-11-22T18:51:56.230Z,7.57
2022-11-22T18:54:23.739Z,9.18
2022-11-22T18:56:51.901Z,10.13
2022-11-22T18:59:19.036Z,7.93
2022-11-22T19:01:46.229Z,11.63
2022-11-22T19:04:15.296Z,9.43
2022-11-22T19:06:43.271Z,9.93
2022-11-22T19:09:10.372Z,8.57
2022-11-22T19:11:37.294Z,9.85
2022-11-22T19:14:04.651Z,10.13
2022-11-22T19:16:31.716Z,8.10
2022-11-22T19:18:59.671Z,14.32
2022-11-22T19:21:28.639Z,10.07
2022-11-22T19:23:56.700Z,13.35
2022-11-22T19:26:25.748Z,10.50
2022-11-22T19:28:57.955Z,10.48
2022-11-22T19:31:29.441Z,10.13
2022-11-22T19:33:57.244Z,11.23
2022-11-22T19:36:32.256Z,11.77
2022-11-22T19:39:00.379Z,12.32
2022-11-22T19:41:27.421Z,11.63
2022-11-22T19:43:56.518Z,11.85
2022-11-22T19:46:24.641Z,11.52
2022-11-22T19:48:56.860Z,11.50
2022-11-22T19:51:25.313Z,9.35
2022-11-22T19:53:59.540Z,9.48
2022-11-22T19:56:30.376Z,11.77
2022-11-22T19:58:58.913Z,12.88
2022-11-22T20:01:28.632Z,9.07
2022-11-22T20:04:01.722Z,11.48
2022-11-22T20:06:29.374Z,9.93
2022-11-22T20:09:05.325Z,10.90
2022-11-22T20:11:32.686Z,10.63
2022-11-22T20:13:59.613Z,10.75
2022-11-22T20:16:28.538Z,13.00
2022-11-22T20:19:00.113Z,11.73
2022-11-22T20:21:28.903Z,13.98
2022-11-22T20:23:56.805Z,13.80
2022-11-22T20:26:24.684Z,13.65
2022-11-22T20:29:13.065Z,12.05
2022-11-22T20:31:40.949Z,13.27
2022-11-22T20:34:08.910Z,12.98
2022-11-22T20:36:36.223Z,13.57
2022-11-22T20:39:09.746Z,11.52
2022-11-22T20:41:37.933Z,12.73
2022-11-22T20:44:05.045Z,11.73
2022-11-22T20:46:35.124Z,10.98
2022-11-22T20:49:02.063Z,10.55
2022-11-22T20:51:29.665Z,10.98
2022-11-22T20:53:57.335Z,12.15
2022-11-22T20:56:24.984Z,10.40
2022-11-22T20:58:52.604Z,9.00
2022-11-22T21:01:24.948Z,10.55
2022-11-22T21:03:52.988Z,8.23
2022-11-22T21:06:21.749Z,8.73
2022-11-22T21:08:49.119Z,9.35
2022-11-22T21:11:18.924Z,7.90
2022-11-22T21:13:47.350Z,10.43
2022-11-22T21:16:23.789Z,10.60
2022-11-22T21:19:01.172Z,9.90
2022-11-22T21:21:29.268Z,11.30
2022-11-22T21:23:57.911Z,13.02
2022-11-22T21:26:25.701Z,11.50
2022-11-22T21:28:53.625Z,12.57
2022-11-22T21:31:22.054Z,12.25
2022-11-22T21:33:49.385Z,12.88
2022-11-22T21:36:16.452Z,13.73
2022-11-22T21:38:43.483Z,12.90
2022-11-22T21:41:39.317Z,11.55
2022-11-22T21:44:01.484Z,11.65
2022-11-22T21:46:28.474Z,8.63
2022-11-22T21:48:56.039Z,7.95
2022-11-22T21:51:25.928Z,8.20
2022-11-22T21:53:59.211Z,5.90
2022-11-22T21:56:27.122Z,6.32
2022-11-22T21:58:54.093Z,6.68
2022-11-22T22:01:21.225Z,6.40
2022-11-22T22:03:48.110Z,5.05
2022-11-22T22:06:15.074Z,4.60
2022-11-22T22:08:42.009Z,6.22
2022-11-22T22:11:08.918Z,3.80
2022-11-22T22:13:36.086Z,4.10
2022-11-22T22:16:06.873Z,4.63
2022-11-22T22:18:35.812Z,4.22
2022-11-22T22:21:07.646Z,3.30
2022-11-22T22:23:35.806Z,7.50
2022-11-22T22:26:05.374Z,4.63
2022-11-22T22:28:35.333Z,3.90
2022-11-22T22:31:10.529Z,3.25
2022-11-22T22:33:39.918Z,4.47
2022-11-22T22:36:08.598Z,3.85
2022-11-22T22:38:35.918Z,6.05
2022-11-22T22:41:05.321Z,4.15
2022-11-22T22:43:37.784Z,3.53
2022-11-22T22:46:06.968Z,5.68
2022-11-22T22:48:34.427Z,3.50
2022-11-22T22:51:10.804Z,2.90
2022-11-22T22:53:37.808Z,3.20
2022-11-22T22:56:05.504Z,4.13
2022-11-22T22:58:32.936Z,3.70
2022-11-22T23:01:15.330Z,2.83
2022-11-22T23:03:42.390Z,6.28
2022-11-22T23:06:11.716Z,4.03
2022-11-22T23:08:39.421Z,3.50
2022-11-22T23:11:08.821Z,4.85
2022-11-22T23:13:37.762Z,4.45
2022-11-22T23:16:06.754Z,4.05
2022-11-22T23:18:38.925Z,4.63
2022-11-22T23:21:07.963Z,4.25
2022-11-22T23:23:35.130Z,5.05
2022-11-22T23:26:04.810Z,4.38
2022-11-22T23:28:32.138Z,4.15
2022-11-22T23:31:12.814Z,5.28
2022-11-22T23:33:40.377Z,4.00
2022-11-22T23:36:09.882Z,4.05
2022-11-22T23:38:36.818Z,3.92
2022-11-22T23:41:04.384Z,4.15
2022-11-22T23:43:31.952Z,3.80
2022-11-22T23:45:59.232Z,3.92
2022-11-22T23:48:27.182Z,4.03
2022-11-22T23:50:54.106Z,4.05
2022-11-22T23:53:21.000Z,4.40
2022-11-22T23:55:47.894Z,3.72
2022-11-22T23:58:14.814Z,3.47
